首页
METAR-TAF:

METAR-TAF

机场 :

錫永機場

锡永, 瑞士

纬度: 46-13N, 经度: 007-20E, 海拔: 482米

当前天气观测

该预报发布于10分钟前的01:50 UTC
风速4节,风向
温度 0°C
湿度 80%
气压 1005 hPa
能见度10公里或以上
1500米以下无云,无积雨云

METAR: LSGS 140150Z AUTO 10004KT CAVOK 00/M03 Q1005

时间: 03:00 (02:00 UTC)

预报

该预报发布于11小时和35分钟前的14:25 UTC
预报有效从13日的 15点(UTC)到 13日的 24点(UTC)
风速4节,风向西转西南
能见度10公里或以上
散云层高于8000英尺

TAF: LSGS 131425Z 1315/1324 25004KT 9999 SCT080

超过4000个机场的气象观测和天气预报(METAR&TAF报告)。

可查询的气象台以黄色和红色小点在地图上表示。

将鼠标移到小点上方,可查看气象台名称。

然后点击查看天气观测和预报。

如需切换地图:点击带黑十字的绿色按钮放大地图;点击带横线的绿色按钮缩小地图;或者点击绿色箭头查看邻近地区的地图。


METAR-TAF: